Havilah, California
Current Conditions -  °F | °C
As of 12:35 PM on Friday 28 Nov 2014 (Local Time) from KTSP Reporting Station
Clear Clear  
Wind Chill: 73°   Ceiling: Unl
Heat Index: 73°   Visibility: 10mi
Dew Point: 10°   Wind: 12mph
Humidity: 9%   Direction: 310°NW
Pressure: 30.05"   Gusts: 18mph
Location:  35.3287°N, 118.419°W
Report Text: KTSP 282035Z AUTO 31010G16KT 10SM CLR 23/M12 A3005 RMK AO2
Loading
Personal Weather Stations






























Interactive Weather Map New forecast layout! Learn more

10-Day Weather Forecast

Advertisements
Track Severe Weather on mobile